sensor_id;sensor_type;location;lat;lon;timestamp;P1;durP1;ratioP1;P2;durP2;ratioP2
59147;SDS011;44930;52.878;6.168;2023-12-20T00:01:23;16.27;;;1.98;;
59147;SDS011;44930;52.878;6.168;2023-12-20T00:03:48;9.35;;;1.58;;
59147;SDS011;44930;52.878;6.168;2023-12-20T00:06:14;14.60;;;1.80;;
59147;SDS011;44930;52.878;6.168;2023-12-20T00:08:40;20.92;;;2.75;;
59147;SDS011;44930;52.878;6.168;2023-12-20T00:11:05;19.90;;;3.80;;
59147;SDS011;44930;52.878;6.168;2023-12-20T00:13:31;14.75;;;2.65;;
59147;SDS011;44930;52.878;6.168;2023-12-20T00:15:57;16.95;;;3.30;;
59147;SDS011;44930;52.878;6.168;2023-12-20T00:18:23;12.23;;;2.38;;
59147;SDS011;44930;52.878;6.168;2023-12-20T00:20:49;15.75;;;2.40;;
59147;SDS011;44930;52.878;6.168;2023-12-20T00:23:14;12.27;;;2.92;;
59147;SDS011;44930;52.878;6.168;2023-12-20T00:25:40;11.48;;;2.28;;
59147;SDS011;44930;52.878;6.168;2023-12-20T00:28:06;11.75;;;2.60;;
59147;SDS011;44930;52.878;6.168;2023-12-20T00:30:32;16.73;;;2.15;;
59147;SDS011;44930;52.878;6.168;2023-12-20T00:32:58;12.88;;;3.65;;
59147;SDS011;44930;52.878;6.168;2023-12-20T00:35:24;13.10;;;2.60;;
59147;SDS011;44930;52.878;6.168;2023-12-20T00:37:50;12.32;;;2.17;;
59147;SDS011;44930;52.878;6.168;2023-12-20T00:40:16;15.57;;;2.40;;
59147;SDS011;44930;52.878;6.168;2023-12-20T00:42:42;12.90;;;2.20;;
59147;SDS011;44930;52.878;6.168;2023-12-20T00:45:08;19.30;;;3.75;;
59147;SDS011;44930;52.878;6.168;2023-12-20T00:47:34;20.67;;;2.70;;
59147;SDS011;44930;52.878;6.168;2023-12-20T00:49:59;15.50;;;3.05;;
59147;SDS011;44930;52.878;6.168;2023-12-20T00:52:25;15.82;;;2.50;;
59147;SDS011;44930;52.878;6.168;2023-12-20T00:54:51;19.73;;;3.05;;
59147;SDS011;44930;52.878;6.168;2023-12-20T00:57:17;24.98;;;3.28;;
59147;SDS011;44930;52.878;6.168;2023-12-20T00:59:42;10.23;;;2.10;;
59147;SDS011;44930;52.878;6.168;2023-12-20T01:02:08;13.52;;;2.35;;
59147;SDS011;44930;52.878;6.168;2023-12-20T01:04:35;20.38;;;2.72;;
59147;SDS011;44930;52.878;6.168;2023-12-20T01:07:00;17.33;;;2.58;;
59147;SDS011;44930;52.878;6.168;2023-12-20T01:09:26;17.13;;;2.53;;
59147;SDS011;44930;52.878;6.168;2023-12-20T01:11:55;14.43;;;2.92;;
59147;SDS011;44930;52.878;6.168;2023-12-20T01:14:21;13.52;;;2.20;;
59147;SDS011;44930;52.878;6.168;2023-12-20T01:16:47;13.40;;;2.65;;
59147;SDS011;44930;52.878;6.168;2023-12-20T01:19:12;14.75;;;2.13;;
59147;SDS011;44930;52.878;6.168;2023-12-20T01:21:39;16.35;;;3.50;;
59147;SDS011;44930;52.878;6.168;2023-12-20T01:24:05;12.18;;;1.85;;
59147;SDS011;44930;52.878;6.168;2023-12-20T01:26:31;26.27;;;3.95;;
59147;SDS011;44930;52.878;6.168;2023-12-20T01:28:57;18.90;;;3.20;;
59147;SDS011;44930;52.878;6.168;2023-12-20T01:31:23;17.85;;;2.58;;
59147;SDS011;44930;52.878;6.168;2023-12-20T01:33:49;16.10;;;2.78;;
59147;SDS011;44930;52.878;6.168;2023-12-20T01:36:15;15.15;;;2.72;;
59147;SDS011;44930;52.878;6.168;2023-12-20T01:38:41;16.63;;;2.75;;
59147;SDS011;44930;52.878;6.168;2023-12-20T01:41:06;17.40;;;2.78;;
59147;SDS011;44930;52.878;6.168;2023-12-20T01:43:32;12.30;;;3.05;;
59147;SDS011;44930;52.878;6.168;2023-12-20T01:45:58;20.52;;;2.88;;
59147;SDS011;44930;52.878;6.168;2023-12-20T01:48:24;21.05;;;3.17;;
59147;SDS011;44930;52.878;6.168;2023-12-20T01:50:51;23.95;;;4.53;;
59147;SDS011;44930;52.878;6.168;2023-12-20T01:53:17;19.08;;;2.67;;
59147;SDS011;44930;52.878;6.168;2023-12-20T01:55:45;19.13;;;2.55;;
59147;SDS011;44930;52.878;6.168;2023-12-20T01:58:13;19.83;;;3.30;;
59147;SDS011;44930;52.878;6.168;2023-12-20T02:00:39;13.98;;;3.05;;
59147;SDS011;44930;52.878;6.168;2023-12-20T02:03:05;27.45;;;4.22;;
59147;SDS011;44930;52.878;6.168;2023-12-20T02:05:32;15.20;;;3.13;;
59147;SDS011;44930;52.878;6.168;2023-12-20T02:07:58;15.13;;;2.97;;
59147;SDS011;44930;52.878;6.168;2023-12-20T02:10:24;25.52;;;3.63;;
59147;SDS011;44930;52.878;6.168;2023-12-20T02:12:50;21.20;;;4.55;;
59147;SDS011;44930;52.878;6.168;2023-12-20T02:15:16;20.23;;;5.05;;
59147;SDS011;44930;52.878;6.168;2023-12-20T02:17:42;15.30;;;2.42;;
59147;SDS011;44930;52.878;6.168;2023-12-20T02:20:09;17.17;;;3.00;;
59147;SDS011;44930;52.878;6.168;2023-12-20T02:22:34;14.48;;;3.20;;
59147;SDS011;44930;52.878;6.168;2023-12-20T02:25:00;20.00;;;4.00;;
59147;SDS011;44930;52.878;6.168;2023-12-20T02:27:26;13.13;;;2.88;;
59147;SDS011;44930;52.878;6.168;2023-12-20T02:29:53;18.77;;;3.58;;
59147;SDS011;44930;52.878;6.168;2023-12-20T02:32:19;22.15;;;4.40;;
59147;SDS011;44930;52.878;6.168;2023-12-20T02:34:47;25.67;;;4.05;;
59147;SDS011;44930;52.878;6.168;2023-12-20T02:37:13;16.90;;;4.05;;
59147;SDS011;44930;52.878;6.168;2023-12-20T02:39:39;22.45;;;4.80;;
59147;SDS011;44930;52.878;6.168;2023-12-20T02:42:05;26.63;;;6.00;;
59147;SDS011;44930;52.878;6.168;2023-12-20T02:44:30;21.23;;;3.72;;
59147;SDS011;44930;52.878;6.168;2023-12-20T02:46:56;23.63;;;3.67;;
59147;SDS011;44930;52.878;6.168;2023-12-20T02:49:22;25.50;;;4.50;;
59147;SDS011;44930;52.878;6.168;2023-12-20T02:51:48;26.95;;;4.68;;
59147;SDS011;44930;52.878;6.168;2023-12-20T02:54:14;27.05;;;3.88;;
59147;SDS011;44930;52.878;6.168;2023-12-20T02:56:40;28.55;;;4.03;;
59147;SDS011;44930;52.878;6.168;2023-12-20T02:59:06;29.17;;;5.30;;
59147;SDS011;44930;52.878;6.168;2023-12-20T03:01:33;21.65;;;3.28;;
59147;SDS011;44930;52.878;6.168;2023-12-20T03:03:59;26.65;;;3.78;;
59147;SDS011;44930;52.878;6.168;2023-12-20T03:06:25;29.58;;;5.38;;
59147;SDS011;44930;52.878;6.168;2023-12-20T03:08:51;29.38;;;4.18;;
59147;SDS011;44930;52.878;6.168;2023-12-20T03:11:17;22.95;;;5.13;;
59147;SDS011;44930;52.878;6.168;2023-12-20T03:13:42;23.05;;;3.47;;
59147;SDS011;44930;52.878;6.168;2023-12-20T03:16:11;25.48;;;4.50;;
59147;SDS011;44930;52.878;6.168;2023-12-20T03:18:37;26.83;;;3.50;;
59147;SDS011;44930;52.878;6.168;2023-12-20T03:21:06;24.65;;;3.72;;
59147;SDS011;44930;52.878;6.168;2023-12-20T03:23:32;24.35;;;4.00;;
59147;SDS011;44930;52.878;6.168;2023-12-20T03:26:01;27.42;;;4.40;;
59147;SDS011;44930;52.878;6.168;2023-12-20T03:28:27;20.45;;;4.30;;
59147;SDS011;44930;52.878;6.168;2023-12-20T03:30:54;33.80;;;6.03;;
59147;SDS011;44930;52.878;6.168;2023-12-20T03:33:20;17.90;;;3.95;;
59147;SDS011;44930;52.878;6.168;2023-12-20T03:35:45;32.08;;;5.88;;
59147;SDS011;44930;52.878;6.168;2023-12-20T03:38:11;18.40;;;2.75;;
59147;SDS011;44930;52.878;6.168;2023-12-20T03:40:36;16.63;;;2.78;;
59147;SDS011;44930;52.878;6.168;2023-12-20T03:43:02;23.63;;;3.97;;
59147;SDS011;44930;52.878;6.168;2023-12-20T03:45:28;23.85;;;3.58;;
59147;SDS011;44930;52.878;6.168;2023-12-20T03:47:54;18.20;;;3.83;;
59147;SDS011;44930;52.878;6.168;2023-12-20T03:50:25;18.95;;;3.97;;
59147;SDS011;44930;52.878;6.168;2023-12-20T03:52:51;24.63;;;4.53;;
59147;SDS011;44930;52.878;6.168;2023-12-20T03:55:17;22.30;;;4.15;;
59147;SDS011;44930;52.878;6.168;2023-12-20T03:57:43;28.15;;;4.78;;
59147;SDS011;44930;52.878;6.168;2023-12-20T04:00:09;18.63;;;2.67;;
59147;SDS011;44930;52.878;6.168;2023-12-20T04:02:38;22.52;;;3.80;;
59147;SDS011;44930;52.878;6.168;2023-12-20T04:05:05;25.55;;;3.92;;
59147;SDS011;44930;52.878;6.168;2023-12-20T04:07:31;30.55;;;4.20;;
59147;SDS011;44930;52.878;6.168;2023-12-20T04:09:57;27.42;;;4.03;;
59147;SDS011;44930;52.878;6.168;2023-12-20T04:12:22;27.27;;;5.80;;
59147;SDS011;44930;52.878;6.168;2023-12-20T04:14:48;21.13;;;3.80;;
59147;SDS011;44930;52.878;6.168;2023-12-20T04:17:14;25.17;;;3.75;;
59147;SDS011;44930;52.878;6.168;2023-12-20T04:19:41;21.98;;;4.45;;
59147;SDS011;44930;52.878;6.168;2023-12-20T04:22:07;20.00;;;4.18;;
59147;SDS011;44930;52.878;6.168;2023-12-20T04:24:33;22.17;;;5.03;;
59147;SDS011;44930;52.878;6.168;2023-12-20T04:26:59;37.15;;;5.25;;
59147;SDS011;44930;52.878;6.168;2023-12-20T04:29:25;25.35;;;4.55;;
59147;SDS011;44930;52.878;6.168;2023-12-20T04:31:51;23.42;;;4.28;;
59147;SDS011;44930;52.878;6.168;2023-12-20T04:34:17;21.92;;;4.38;;
59147;SDS011;44930;52.878;6.168;2023-12-20T04:36:43;18.13;;;2.88;;
59147;SDS011;44930;52.878;6.168;2023-12-20T04:39:09;20.20;;;4.22;;
59147;SDS011;44930;52.878;6.168;2023-12-20T04:41:35;16.15;;;4.35;;
59147;SDS011;44930;52.878;6.168;2023-12-20T04:44:01;24.60;;;4.38;;
59147;SDS011;44930;52.878;6.168;2023-12-20T04:46:27;25.38;;;4.22;;
59147;SDS011;44930;52.878;6.168;2023-12-20T04:48:53;14.07;;;2.60;;
59147;SDS011;44930;52.878;6.168;2023-12-20T04:51:19;28.20;;;4.10;;
59147;SDS011;44930;52.878;6.168;2023-12-20T04:53:45;25.63;;;4.50;;
59147;SDS011;44930;52.878;6.168;2023-12-20T04:56:11;18.80;;;2.78;;
59147;SDS011;44930;52.878;6.168;2023-12-20T04:58:37;25.00;;;3.95;;
59147;SDS011;44930;52.878;6.168;2023-12-20T05:01:03;23.95;;;4.00;;
59147;SDS011;44930;52.878;6.168;2023-12-20T05:03:30;26.33;;;3.40;;
59147;SDS011;44930;52.878;6.168;2023-12-20T05:05:56;12.13;;;2.47;;
59147;SDS011;44930;52.878;6.168;2023-12-20T05:08:22;26.08;;;4.97;;
59147;SDS011;44930;52.878;6.168;2023-12-20T05:10:47;17.05;;;2.78;;
59147;SDS011;44930;52.878;6.168;2023-12-20T05:13:13;19.90;;;3.50;;
59147;SDS011;44930;52.878;6.168;2023-12-20T05:15:39;20.17;;;4.07;;
59147;SDS011;44930;52.878;6.168;2023-12-20T05:18:04;20.42;;;4.38;;
59147;SDS011;44930;52.878;6.168;2023-12-20T05:20:30;17.05;;;2.50;;
59147;SDS011;44930;52.878;6.168;2023-12-20T05:22:56;19.77;;;5.20;;
59147;SDS011;44930;52.878;6.168;2023-12-20T05:25:21;16.13;;;2.50;;
59147;SDS011;44930;52.878;6.168;2023-12-20T05:27:47;12.88;;;3.40;;
59147;SDS011;44930;52.878;6.168;2023-12-20T05:30:13;24.90;;;3.05;;
59147;SDS011;44930;52.878;6.168;2023-12-20T05:32:39;15.45;;;3.33;;
59147;SDS011;44930;52.878;6.168;2023-12-20T05:35:05;27.92;;;4.43;;
59147;SDS011;44930;52.878;6.168;2023-12-20T05:37:31;15.77;;;3.50;;
59147;SDS011;44930;52.878;6.168;2023-12-20T05:39:56;16.70;;;3.35;;
59147;SDS011;44930;52.878;6.168;2023-12-20T05:42:22;26.38;;;4.18;;
59147;SDS011;44930;52.878;6.168;2023-12-20T05:44:47;22.92;;;3.72;;
59147;SDS011;44930;52.878;6.168;2023-12-20T05:47:13;25.77;;;5.15;;
59147;SDS011;44930;52.878;6.168;2023-12-20T05:49:39;22.83;;;3.95;;
59147;SDS011;44930;52.878;6.168;2023-12-20T05:52:05;14.82;;;2.65;;
59147;SDS011;44930;52.878;6.168;2023-12-20T05:54:31;26.60;;;4.78;;
59147;SDS011;44930;52.878;6.168;2023-12-20T05:56:57;19.17;;;2.97;;
59147;SDS011;44930;52.878;6.168;2023-12-20T05:59:23;14.98;;;2.95;;
59147;SDS011;44930;52.878;6.168;2023-12-20T06:01:49;13.48;;;2.78;;
59147;SDS011;44930;52.878;6.168;2023-12-20T06:04:15;25.33;;;3.90;;
59147;SDS011;44930;52.878;6.168;2023-12-20T06:06:43;19.77;;;3.30;;
59147;SDS011;44930;52.878;6.168;2023-12-20T06:09:10;15.43;;;3.08;;
59147;SDS011;44930;52.878;6.168;2023-12-20T06:11:35;25.35;;;3.92;;
59147;SDS011;44930;52.878;6.168;2023-12-20T06:14:01;17.92;;;3.92;;
59147;SDS011;44930;52.878;6.168;2023-12-20T06:16:27;27.95;;;4.20;;
59147;SDS011;44930;52.878;6.168;2023-12-20T06:18:53;18.42;;;3.13;;
59147;SDS011;44930;52.878;6.168;2023-12-20T06:21:18;18.83;;;4.22;;
59147;SDS011;44930;52.878;6.168;2023-12-20T06:23:44;21.48;;;2.97;;
59147;SDS011;44930;52.878;6.168;2023-12-20T06:26:10;24.13;;;4.10;;
59147;SDS011;44930;52.878;6.168;2023-12-20T06:28:35;9.07;;;2.35;;
59147;SDS011;44930;52.878;6.168;2023-12-20T06:31:01;24.73;;;3.67;;
59147;SDS011;44930;52.878;6.168;2023-12-20T06:33:28;25.15;;;3.80;;
59147;SDS011;44930;52.878;6.168;2023-12-20T06:35:56;20.42;;;4.53;;
59147;SDS011;44930;52.878;6.168;2023-12-20T06:38:21;20.52;;;3.70;;
59147;SDS011;44930;52.878;6.168;2023-12-20T06:40:47;16.70;;;3.50;;
59147;SDS011;44930;52.878;6.168;2023-12-20T06:43:13;27.52;;;3.92;;
59147;SDS011;44930;52.878;6.168;2023-12-20T06:45:38;31.70;;;4.70;;
59147;SDS011;44930;52.878;6.168;2023-12-20T06:48:04;18.98;;;3.97;;
59147;SDS011;44930;52.878;6.168;2023-12-20T06:50:30;16.52;;;4.35;;
59147;SDS011;44930;52.878;6.168;2023-12-20T06:52:56;25.25;;;4.22;;
59147;SDS011;44930;52.878;6.168;2023-12-20T06:55:22;20.15;;;3.25;;
59147;SDS011;44930;52.878;6.168;2023-12-20T06:57:48;27.60;;;3.75;;
59147;SDS011;44930;52.878;6.168;2023-12-20T07:00:14;21.10;;;4.15;;
59147;SDS011;44930;52.878;6.168;2023-12-20T07:02:40;14.95;;;2.65;;
59147;SDS011;44930;52.878;6.168;2023-12-20T07:05:06;19.35;;;4.10;;
59147;SDS011;44930;52.878;6.168;2023-12-20T07:07:32;22.55;;;3.30;;
59147;SDS011;44930;52.878;6.168;2023-12-20T07:09:57;23.08;;;3.65;;
59147;SDS011;44930;52.878;6.168;2023-12-20T07:12:23;26.40;;;5.05;;
59147;SDS011;44930;52.878;6.168;2023-12-20T07:14:49;26.75;;;3.60;;
59147;SDS011;44930;52.878;6.168;2023-12-20T07:17:14;18.65;;;3.42;;
59147;SDS011;44930;52.878;6.168;2023-12-20T07:19:41;25.02;;;4.88;;
59147;SDS011;44930;52.878;6.168;2023-12-20T07:22:07;24.98;;;4.82;;
59147;SDS011;44930;52.878;6.168;2023-12-20T07:24:33;16.70;;;2.35;;
59147;SDS011;44930;52.878;6.168;2023-12-20T07:27:02;20.20;;;3.63;;
59147;SDS011;44930;52.878;6.168;2023-12-20T07:29:27;23.50;;;4.63;;
59147;SDS011;44930;52.878;6.168;2023-12-20T07:31:53;27.95;;;5.00;;
59147;SDS011;44930;52.878;6.168;2023-12-20T07:34:22;27.02;;;4.18;;
59147;SDS011;44930;52.878;6.168;2023-12-20T07:36:48;23.75;;;3.17;;
59147;SDS011;44930;52.878;6.168;2023-12-20T07:39:14;19.85;;;5.13;;
59147;SDS011;44930;52.878;6.168;2023-12-20T07:41:40;18.77;;;5.38;;
59147;SDS011;44930;52.878;6.168;2023-12-20T07:44:06;27.25;;;4.15;;
59147;SDS011;44930;52.878;6.168;2023-12-20T07:46:32;12.23;;;2.75;;
59147;SDS011;44930;52.878;6.168;2023-12-20T07:48:58;27.13;;;5.22;;
59147;SDS011;44930;52.878;6.168;2023-12-20T07:51:24;15.02;;;2.40;;
59147;SDS011;44930;52.878;6.168;2023-12-20T07:53:49;23.98;;;3.95;;
59147;SDS011;44930;52.878;6.168;2023-12-20T07:56:17;23.65;;;4.00;;
59147;SDS011;44930;52.878;6.168;2023-12-20T07:58:43;23.80;;;3.53;;
59147;SDS011;44930;52.878;6.168;2023-12-20T08:01:10;16.73;;;4.30;;
59147;SDS011;44930;52.878;6.168;2023-12-20T08:03:36;21.52;;;3.97;;
59147;SDS011;44930;52.878;6.168;2023-12-20T08:06:02;28.92;;;3.95;;
59147;SDS011;44930;52.878;6.168;2023-12-20T08:08:28;22.73;;;5.65;;
59147;SDS011;44930;52.878;6.168;2023-12-20T08:10:54;13.70;;;3.00;;
59147;SDS011;44930;52.878;6.168;2023-12-20T08:13:20;20.63;;;3.22;;
59147;SDS011;44930;52.878;6.168;2023-12-20T08:15:50;24.40;;;3.97;;
59147;SDS011;44930;52.878;6.168;2023-12-20T08:18:16;21.02;;;5.07;;
59147;SDS011;44930;52.878;6.168;2023-12-20T08:20:42;14.50;;;2.75;;
59147;SDS011;44930;52.878;6.168;2023-12-20T08:23:08;21.67;;;3.95;;
59147;SDS011;44930;52.878;6.168;2023-12-20T08:25:33;24.40;;;4.38;;
59147;SDS011;44930;52.878;6.168;2023-12-20T08:27:59;24.23;;;3.45;;
59147;SDS011;44930;52.878;6.168;2023-12-20T08:30:24;20.33;;;3.25;;
59147;SDS011;44930;52.878;6.168;2023-12-20T08:32:50;14.45;;;3.83;;
59147;SDS011;44930;52.878;6.168;2023-12-20T08:35:16;15.02;;;3.15;;
59147;SDS011;44930;52.878;6.168;2023-12-20T08:37:43;18.80;;;3.63;;
59147;SDS011;44930;52.878;6.168;2023-12-20T08:40:09;21.75;;;3.20;;
59147;SDS011;44930;52.878;6.168;2023-12-20T08:42:35;11.25;;;3.20;;
59147;SDS011;44930;52.878;6.168;2023-12-20T08:45:00;8.32;;;2.10;;
59147;SDS011;44930;52.878;6.168;2023-12-20T08:47:28;26.08;;;3.28;;
59147;SDS011;44930;52.878;6.168;2023-12-20T08:49:54;18.75;;;3.28;;
59147;SDS011;44930;52.878;6.168;2023-12-20T08:52:23;19.85;;;3.47;;
59147;SDS011;44930;52.878;6.168;2023-12-20T08:54:49;14.07;;;2.55;;
59147;SDS011;44930;52.878;6.168;2023-12-20T08:57:17;14.65;;;2.92;;
59147;SDS011;44930;52.878;6.168;2023-12-20T08:59:44;19.85;;;3.05;;
59147;SDS011;44930;52.878;6.168;2023-12-20T09:02:10;7.97;;;2.90;;
59147;SDS011;44930;52.878;6.168;2023-12-20T09:04:35;15.50;;;3.55;;
59147;SDS011;44930;52.878;6.168;2023-12-20T09:07:01;16.20;;;3.60;;
59147;SDS011;44930;52.878;6.168;2023-12-20T09:09:27;20.90;;;5.70;;
59147;SDS011;44930;52.878;6.168;2023-12-20T09:11:52;10.30;;;2.88;;
59147;SDS011;44930;52.878;6.168;2023-12-20T09:14:18;16.33;;;3.25;;
59147;SDS011;44930;52.878;6.168;2023-12-20T09:16:44;23.15;;;4.38;;
59147;SDS011;44930;52.878;6.168;2023-12-20T09:19:10;21.52;;;4.82;;
59147;SDS011;44930;52.878;6.168;2023-12-20T09:21:35;21.05;;;4.28;;
59147;SDS011;44930;52.878;6.168;2023-12-20T09:24:01;13.65;;;2.88;;
59147;SDS011;44930;52.878;6.168;2023-12-20T09:26:26;21.25;;;3.33;;
59147;SDS011;44930;52.878;6.168;2023-12-20T09:28:52;22.75;;;4.28;;
59147;SDS011;44930;52.878;6.168;2023-12-20T09:31:18;17.98;;;3.42;;
59147;SDS011;44930;52.878;6.168;2023-12-20T09:33:44;30.50;;;4.85;;
59147;SDS011;44930;52.878;6.168;2023-12-20T09:36:10;13.90;;;2.83;;
59147;SDS011;44930;52.878;6.168;2023-12-20T09:38:36;9.13;;;2.42;;
59147;SDS011;44930;52.878;6.168;2023-12-20T09:41:01;5.47;;;1.63;;
59147;SDS011;44930;52.878;6.168;2023-12-20T09:43:29;12.57;;;2.95;;
59147;SDS011;44930;52.878;6.168;2023-12-20T09:45:55;5.50;;;1.20;;
59147;SDS011;44930;52.878;6.168;2023-12-20T09:48:27;5.15;;;1.45;;
59147;SDS011;44930;52.878;6.168;2023-12-20T09:50:53;9.75;;;1.40;;
59147;SDS011;44930;52.878;6.168;2023-12-20T09:53:20;7.38;;;1.10;;
59147;SDS011;44930;52.878;6.168;2023-12-20T09:55:48;6.57;;;1.27;;
59147;SDS011;44930;52.878;6.168;2023-12-20T09:58:14;9.13;;;1.70;;
59147;SDS011;44930;52.878;6.168;2023-12-20T10:00:40;7.47;;;1.85;;
59147;SDS011;44930;52.878;6.168;2023-12-20T10:03:06;12.85;;;2.15;;
59147;SDS011;44930;52.878;6.168;2023-12-20T10:05:33;12.85;;;2.45;;
59147;SDS011;44930;52.878;6.168;2023-12-20T10:07:59;11.77;;;1.45;;
59147;SDS011;44930;52.878;6.168;2023-12-20T10:10:26;8.52;;;1.75;;
59147;SDS011;44930;52.878;6.168;2023-12-20T10:13:05;10.85;;;2.78;;
59147;SDS011;44930;52.878;6.168;2023-12-20T10:15:32;8.93;;;1.10;;
59147;SDS011;44930;52.878;6.168;2023-12-20T10:17:58;15.88;;;2.45;;
59147;SDS011;44930;52.878;6.168;2023-12-20T10:20:24;9.93;;;2.78;;
59147;SDS011;44930;52.878;6.168;2023-12-20T10:22:51;10.45;;;1.55;;
59147;SDS011;44930;52.878;6.168;2023-12-20T10:25:19;16.73;;;1.60;;
59147;SDS011;44930;52.878;6.168;2023-12-20T10:27:45;8.45;;;1.48;;
59147;SDS011;44930;52.878;6.168;2023-12-20T10:30:12;9.65;;;1.33;;
59147;SDS011;44930;52.878;6.168;2023-12-20T10:32:39;12.23;;;1.98;;
59147;SDS011;44930;52.878;6.168;2023-12-20T10:35:05;13.65;;;1.63;;
59147;SDS011;44930;52.878;6.168;2023-12-20T10:37:35;11.13;;;1.60;;
59147;SDS011;44930;52.878;6.168;2023-12-20T10:40:02;9.82;;;1.35;;
59147;SDS011;44930;52.878;6.168;2023-12-20T10:42:29;8.30;;;1.30;;
59147;SDS011;44930;52.878;6.168;2023-12-20T10:44:55;7.88;;;2.00;;
59147;SDS011;44930;52.878;6.168;2023-12-20T10:47:21;7.00;;;1.30;;
59147;SDS011;44930;52.878;6.168;2023-12-20T10:49:49;5.22;;;1.55;;
59147;SDS011;44930;52.878;6.168;2023-12-20T10:52:17;12.63;;;1.95;;
59147;SDS011;44930;52.878;6.168;2023-12-20T10:54:44;9.65;;;2.30;;
59147;SDS011;44930;52.878;6.168;2023-12-20T10:57:10;13.23;;;1.80;;
59147;SDS011;44930;52.878;6.168;2023-12-20T10:59:37;11.45;;;1.50;;
59147;SDS011;44930;52.878;6.168;2023-12-20T11:02:06;7.65;;;1.33;;
59147;SDS011;44930;52.878;6.168;2023-12-20T11:04:47;13.93;;;1.40;;
59147;SDS011;44930;52.878;6.168;2023-12-20T11:07:25;11.55;;;2.97;;
59147;SDS011;44930;52.878;6.168;2023-12-20T11:09:59;11.55;;;1.58;;
59147;SDS011;44930;52.878;6.168;2023-12-20T11:15:19;20.02;;;3.47;;
59147;SDS011;44930;52.878;6.168;2023-12-20T11:17:45;11.23;;;1.85;;
59147;SDS011;44930;52.878;6.168;2023-12-20T11:20:13;10.02;;;1.90;;
59147;SDS011;44930;52.878;6.168;2023-12-20T11:22:39;6.35;;;1.45;;
59147;SDS011;44930;52.878;6.168;2023-12-20T11:25:19;12.93;;;2.00;;
59147;SDS011;44930;52.878;6.168;2023-12-20T11:27:46;16.67;;;1.67;;
59147;SDS011;44930;52.878;6.168;2023-12-20T11:30:42;17.73;;;2.50;;
59147;SDS011;44930;52.878;6.168;2023-12-20T11:35:36;9.73;;;2.45;;
59147;SDS011;44930;52.878;6.168;2023-12-20T11:38:02;12.43;;;2.67;;
59147;SDS011;44930;52.878;6.168;2023-12-20T11:40:27;13.63;;;2.17;;
59147;SDS011;44930;52.878;6.168;2023-12-20T11:42:53;11.57;;;2.30;;
59147;SDS011;44930;52.878;6.168;2023-12-20T11:45:21;15.13;;;1.90;;
59147;SDS011;44930;52.878;6.168;2023-12-20T11:47:50;14.82;;;1.70;;
59147;SDS011;44930;52.878;6.168;2023-12-20T11:50:19;9.45;;;1.55;;
59147;SDS011;44930;52.878;6.168;2023-12-20T11:52:46;12.30;;;1.80;;
59147;SDS011;44930;52.878;6.168;2023-12-20T11:55:12;11.15;;;2.17;;
59147;SDS011;44930;52.878;6.168;2023-12-20T11:57:38;8.40;;;1.40;;
59147;SDS011;44930;52.878;6.168;2023-12-20T12:00:04;14.30;;;2.42;;
59147;SDS011;44930;52.878;6.168;2023-12-20T12:02:31;11.93;;;1.50;;
59147;SDS011;44930;52.878;6.168;2023-12-20T12:04:57;14.70;;;2.47;;
59147;SDS011;44930;52.878;6.168;2023-12-20T12:07:24;12.48;;;1.90;;
59147;SDS011;44930;52.878;6.168;2023-12-20T12:09:50;12.43;;;1.75;;
59147;SDS011;44930;52.878;6.168;2023-12-20T12:12:17;7.88;;;2.03;;
59147;SDS011;44930;52.878;6.168;2023-12-20T12:14:44;6.95;;;1.33;;
59147;SDS011;44930;52.878;6.168;2023-12-20T12:17:13;5.32;;;1.33;;
59147;SDS011;44930;52.878;6.168;2023-12-20T12:19:40;8.70;;;1.40;;
59147;SDS011;44930;52.878;6.168;2023-12-20T12:22:10;10.10;;;2.53;;
59147;SDS011;44930;52.878;6.168;2023-12-20T12:24:46;11.80;;;2.20;;
59147;SDS011;44930;52.878;6.168;2023-12-20T12:27:15;13.75;;;1.52;;
59147;SDS011;44930;52.878;6.168;2023-12-20T12:29:41;12.15;;;2.22;;
59147;SDS011;44930;52.878;6.168;2023-12-20T12:32:29;11.27;;;1.65;;
59147;SDS011;44930;52.878;6.168;2023-12-20T12:34:54;12.48;;;1.80;;
59147;SDS011;44930;52.878;6.168;2023-12-20T12:37:20;8.48;;;1.45;;
59147;SDS011;44930;52.878;6.168;2023-12-20T12:39:48;12.90;;;1.73;;
59147;SDS011;44930;52.878;6.168;2023-12-20T12:42:15;13.30;;;1.67;;
59147;SDS011;44930;52.878;6.168;2023-12-20T12:44:40;8.10;;;1.17;;
59147;SDS011;44930;52.878;6.168;2023-12-20T12:47:06;10.70;;;1.65;;
59147;SDS011;44930;52.878;6.168;2023-12-20T12:49:33;11.10;;;1.73;;
59147;SDS011;44930;52.878;6.168;2023-12-20T12:51:58;9.82;;;1.98;;
59147;SDS011;44930;52.878;6.168;2023-12-20T12:54:24;8.23;;;1.98;;
59147;SDS011;44930;52.878;6.168;2023-12-20T12:56:50;7.47;;;1.48;;
59147;SDS011;44930;52.878;6.168;2023-12-20T12:59:17;7.80;;;1.60;;
59147;SDS011;44930;52.878;6.168;2023-12-20T13:01:43;7.85;;;1.52;;
59147;SDS011;44930;52.878;6.168;2023-12-20T13:04:09;11.65;;;2.35;;
59147;SDS011;44930;52.878;6.168;2023-12-20T13:06:36;12.18;;;1.65;;
59147;SDS011;44930;52.878;6.168;2023-12-20T13:09:03;8.32;;;1.77;;
59147;SDS011;44930;52.878;6.168;2023-12-20T13:11:29;13.75;;;1.88;;
59147;SDS011;44930;52.878;6.168;2023-12-20T13:13:56;10.07;;;1.38;;
59147;SDS011;44930;52.878;6.168;2023-12-20T13:16:23;8.98;;;1.30;;
59147;SDS011;44930;52.878;6.168;2023-12-20T13:18:49;9.18;;;2.47;;
59147;SDS011;44930;52.878;6.168;2023-12-20T13:21:15;8.48;;;1.60;;
59147;SDS011;44930;52.878;6.168;2023-12-20T13:23:42;5.20;;;1.20;;
59147;SDS011;44930;52.878;6.168;2023-12-20T13:26:08;11.95;;;1.60;;
59147;SDS011;44930;52.878;6.168;2023-12-20T13:28:34;10.77;;;1.30;;
59147;SDS011;44930;52.878;6.168;2023-12-20T13:30:59;13.27;;;2.78;;
59147;SDS011;44930;52.878;6.168;2023-12-20T13:33:25;11.13;;;1.80;;
59147;SDS011;44930;52.878;6.168;2023-12-20T13:35:51;8.38;;;1.48;;
59147;SDS011;44930;52.878;6.168;2023-12-20T13:38:16;8.40;;;1.70;;
59147;SDS011;44930;52.878;6.168;2023-12-20T13:40:42;8.55;;;2.05;;
59147;SDS011;44930;52.878;6.168;2023-12-20T13:43:08;12.98;;;2.25;;
59147;SDS011;44930;52.878;6.168;2023-12-20T13:45:36;8.25;;;1.33;;
59147;SDS011;44930;52.878;6.168;2023-12-20T13:48:02;11.30;;;1.88;;
59147;SDS011;44930;52.878;6.168;2023-12-20T13:50:29;7.97;;;1.50;;
59147;SDS011;44930;52.878;6.168;2023-12-20T13:52:55;6.35;;;2.13;;
59147;SDS011;44930;52.878;6.168;2023-12-20T13:55:21;8.05;;;2.53;;
59147;SDS011;44930;52.878;6.168;2023-12-20T13:57:50;9.38;;;1.83;;
59147;SDS011;44930;52.878;6.168;2023-12-20T14:00:16;6.30;;;1.92;;
59147;SDS011;44930;52.878;6.168;2023-12-20T14:02:42;10.52;;;2.22;;
59147;SDS011;44930;52.878;6.168;2023-12-20T14:05:08;8.52;;;1.85;;
59147;SDS011;44930;52.878;6.168;2023-12-20T14:07:35;7.97;;;1.85;;
59147;SDS011;44930;52.878;6.168;2023-12-20T14:10:02;6.75;;;1.83;;
59147;SDS011;44930;52.878;6.168;2023-12-20T14:12:28;8.93;;;1.30;;
59147;SDS011;44930;52.878;6.168;2023-12-20T14:14:54;10.18;;;3.17;;
59147;SDS011;44930;52.878;6.168;2023-12-20T14:17:21;12.63;;;2.05;;
59147;SDS011;44930;52.878;6.168;2023-12-20T14:19:47;11.40;;;1.90;;
59147;SDS011;44930;52.878;6.168;2023-12-20T14:22:12;13.05;;;1.70;;
59147;SDS011;44930;52.878;6.168;2023-12-20T14:24:41;7.25;;;1.60;;
59147;SDS011;44930;52.878;6.168;2023-12-20T14:27:07;10.27;;;1.65;;
59147;SDS011;44930;52.878;6.168;2023-12-20T14:29:34;8.38;;;1.40;;
59147;SDS011;44930;52.878;6.168;2023-12-20T14:32:00;7.45;;;1.90;;
59147;SDS011;44930;52.878;6.168;2023-12-20T14:34:28;7.20;;;1.23;;
59147;SDS011;44930;52.878;6.168;2023-12-20T14:36:54;7.28;;;1.70;;